Time;durP1;ratioP1;P1;durP2;ratioP2;P2;SDS_P1;SDS_P2;PMS_P1;PMS_P2;Temp;Humidity;BMP_temperature;BMP_pressure;BME280_temperature;BME280_humidity;BME280_pressure;Samples;Min_cycle;Max_cycle;Signal;HPM_P1;HPM_P2
2023/08/25 00:01:01;;;;;;;13.43;10.77;;;;;;;;;;5078334;28;20327;-72
2023/08/25 00:03:26;;;;;;;12.63;11.40;;;;;;;;;;5052599;28;20272;-71
2023/08/25 00:05:53;;;;;;;14.77;9.68;;;;;;;;;;5030248;28;20028;-71
2023/08/25 00:08:18;;;;;;;14.70;9.55;;;;;;;;;;5033183;28;20012;-72
2023/08/25 00:10:43;;;;;;;14.60;10.20;;;;;;;;;;5028920;28;20086;-72
2023/08/25 00:13:09;;;;;;;15.77;10.10;;;;;;;;;;5040777;28;20029;-72
2023/08/25 00:15:34;;;;;;;16.67;9.87;;;;;;;;;;5033234;28;21282;-71
2023/08/25 00:17:59;;;;;;;11.30;10.10;;;;;;;;;;5031256;28;20278;-71
2023/08/25 00:20:25;;;;;;;10.27;9.15;;;;;;;;;;5039009;28;20016;-72
2023/08/25 00:22:50;;;;;;;22.55;10.18;;;;;;;;;;5031715;28;20098;-71
2023/08/25 00:25:16;;;;;;;14.98;10.20;;;;;;;;;;5041788;28;20179;-71
2023/08/25 00:27:41;;;;;;;14.02;10.88;;;;;;;;;;5073959;28;20031;-72
2023/08/25 00:30:10;;;;;;;12.70;10.73;;;;;;;;;;5080657;28;20091;-72
2023/08/25 00:32:35;;;;;;;15.02;11.15;;;;;;;;;;5079287;28;20275;-72
2023/08/25 00:35:00;;;;;;;14.07;11.60;;;;;;;;;;5080272;28;20405;-71
2023/08/25 00:37:26;;;;;;;14.53;13.03;;;;;;;;;;5083247;28;20511;-72
2023/08/25 00:39:51;;;;;;;14.73;12.02;;;;;;;;;;5079973;28;20322;-71
2023/08/25 00:42:16;;;;;;;14.00;12.10;;;;;;;;;;5076362;28;20017;-72
2023/08/25 00:44:41;;;;;;;14.38;12.77;;;;;;;;;;5085322;28;20379;-72
2023/08/25 00:47:06;;;;;;;15.67;11.47;;;;;;;;;;5091434;28;20390;-72
2023/08/25 00:49:32;;;;;;;16.45;12.18;;;;;;;;;;5090369;28;20274;-72
2023/08/25 00:51:58;;;;;;;14.00;11.07;;;;;;;;;;5084128;28;20055;-72
2023/08/25 00:54:25;;;;;;;15.02;11.50;;;;;;;;;;5084848;28;20032;-72
2023/08/25 00:56:50;;;;;;;14.35;11.95;;;;;;;;;;5091133;28;20107;-73
2023/08/25 00:59:16;;;;;;;17.25;11.25;;;;;;;;;;5090128;28;20100;-69
2023/08/25 01:01:45;;;;;;;12.88;10.93;;;;;;;;;;5071081;28;20483;-69
2023/08/25 01:04:10;;;;;;;12.93;10.90;;;;;;;;;;5085459;28;20067;-68
2023/08/25 01:06:37;;;;;;;10.60;9.52;;;;;;;;;;5091119;28;20066;-68
2023/08/25 01:09:04;;;;;;;11.10;9.02;;;;;;;;;;5090016;28;20385;-68
2023/08/25 01:11:58;;;;;;;11.90;9.07;;;;;;;;;;5079165;28;20036;-68
2023/08/25 01:14:42;;;;;;;13.52;9.48;;;;;;;;;;5058321;28;20067;-68
2023/08/25 01:17:17;;;;;;;9.73;7.40;;;;;;;;;;5089942;28;20024;-69
2023/08/25 01:19:59;;;;;;;11.27;8.10;;;;;;;;;;5088815;28;20024;-68
2023/08/25 01:22:33;;;;;;;11.32;7.15;;;;;;;;;;5074431;28;20024;-69
2023/08/25 01:24:59;;;;;;;;;;;;;;;;;;5090019;28;20034;-70
2023/08/25 01:27:24;;;;;;;8.25;5.45;;;;;;;;;;5072873;28;19912;-69
2023/08/25 01:29:50;;;;;;;8.63;6.38;;;;;;;;;;5072495;28;20485;-70
2023/08/25 01:32:15;;;;;;;8.30;6.00;;;;;;;;;;5072729;28;20028;-70
2023/08/25 01:34:40;;;;;;;7.47;5.70;;;;;;;;;;5075396;28;20033;-70
2023/08/25 01:37:17;;;;;;;10.02;6.72;;;;;;;;;;5071945;28;20366;-69
2023/08/25 01:39:44;;;;;;;9.27;5.55;;;;;;;;;;5071143;28;20035;-70
2023/08/25 01:42:09;;;;;;;7.65;5.55;;;;;;;;;;5080287;28;20020;-70
2023/08/25 01:44:36;;;;;;;6.38;5.50;;;;;;;;;;5072015;28;20033;-69
2023/08/25 01:47:03;;;;;;;7.50;5.00;;;;;;;;;;5080764;28;20043;-69
2023/08/25 01:49:29;;;;;;;8.55;5.40;;;;;;;;;;5081371;28;20024;-69
2023/08/25 01:51:54;;;;;;;6.53;5.07;;;;;;;;;;5075158;28;20029;-70
2023/08/25 01:54:20;;;;;;;8.80;5.07;;;;;;;;;;5076546;28;20020;-69
2023/08/25 01:56:45;;;;;;;8.40;5.10;;;;;;;;;;5075974;28;20375;-70
2023/08/25 01:59:10;;;;;;;6.90;4.83;;;;;;;;;;5076093;28;20266;-70
2023/08/25 02:01:35;;;;;;;6.13;4.07;;;;;;;;;;5079452;28;20316;-70
2023/08/25 02:04:01;;;;;;;10.73;5.00;;;;;;;;;;5082887;28;20271;-68
2023/08/25 02:06:26;;;;;;;8.48;4.90;;;;;;;;;;5090760;28;20273;-68
2023/08/25 02:08:51;;;;;;;8.02;4.65;;;;;;;;;;5076019;28;20074;-68
2023/08/25 02:11:17;;;;;;;7.05;4.85;;;;;;;;;;5060022;28;20039;-69
2023/08/25 02:13:42;;;;;;;8.93;5.20;;;;;;;;;;5046353;28;20107;-68
2023/08/25 02:16:07;;;;;;;9.50;4.72;;;;;;;;;;5043053;28;20302;-68
2023/08/25 02:18:33;;;;;;;8.80;4.60;;;;;;;;;;5036598;28;20035;-69
2023/08/25 02:20:58;;;;;;;7.32;4.57;;;;;;;;;;5028550;28;20179;-68
2023/08/25 02:23:23;;;;;;;7.30;4.63;;;;;;;;;;5042525;28;20890;-69
2023/08/25 02:25:49;;;;;;;5.38;4.45;;;;;;;;;;5032524;28;20035;-70
2023/08/25 02:28:14;;;;;;;6.88;4.70;;;;;;;;;;5046084;28;20830;-70
2023/08/25 02:30:39;;;;;;;8.10;5.40;;;;;;;;;;5043881;28;20542;-70
2023/08/25 02:33:04;;;;;;;10.60;5.07;;;;;;;;;;5035225;28;20328;-70
2023/08/25 02:35:30;;;;;;;7.95;4.90;;;;;;;;;;5034084;28;20025;-69
2023/08/25 02:37:57;;;;;;;9.48;5.18;;;;;;;;;;5032805;28;20024;-70
2023/08/25 02:40:23;;;;;;;12.52;4.47;;;;;;;;;;5039585;28;20024;-71
2023/08/25 02:42:48;;;;;;;7.47;4.47;;;;;;;;;;5031795;28;20027;-69
2023/08/25 02:45:13;;;;;;;9.77;4.80;;;;;;;;;;5039036;28;20028;-71
2023/08/25 02:47:38;;;;;;;7.43;4.93;;;;;;;;;;5040790;28;20278;-70
2023/08/25 02:50:04;;;;;;;7.77;4.53;;;;;;;;;;5091520;28;20381;-70
2023/08/25 02:52:29;;;;;;;6.65;4.18;;;;;;;;;;5091375;28;20340;-69
2023/08/25 02:54:54;;;;;;;16.17;5.13;;;;;;;;;;5092023;28;20081;-70
2023/08/25 02:57:20;;;;;;;10.70;4.30;;;;;;;;;;5090798;28;20278;-70
2023/08/25 02:59:45;;;;;;;7.05;4.10;;;;;;;;;;5091544;28;21039;-70
2023/08/25 03:02:10;;;;;;;9.03;4.60;;;;;;;;;;5091687;28;20024;-70
2023/08/25 03:04:35;;;;;;;9.20;4.23;;;;;;;;;;5091779;28;20276;-69
2023/08/25 03:07:00;;;;;;;6.07;4.50;;;;;;;;;;5090819;28;20274;-69
2023/08/25 03:09:26;;;;;;;7.33;5.27;;;;;;;;;;5091579;28;20305;-68
2023/08/25 03:11:51;;;;;;;10.75;4.97;;;;;;;;;;5078261;28;20301;-70
2023/08/25 03:14:18;;;;;;;8.48;4.95;;;;;;;;;;5073293;28;20055;-70
2023/08/25 03:16:43;;;;;;;7.65;5.07;;;;;;;;;;5072951;28;20028;-70
2023/08/25 03:19:08;;;;;;;6.95;5.10;;;;;;;;;;5072997;28;20070;-70
2023/08/25 03:21:33;;;;;;;6.27;5.03;;;;;;;;;;5073681;28;20043;-70
2023/08/25 03:23:59;;;;;;;7.15;4.85;;;;;;;;;;5087799;28;20267;-70
2023/08/25 03:26:25;;;;;;;7.47;4.57;;;;;;;;;;5080560;28;20021;-70
2023/08/25 03:28:50;;;;;;;17.20;5.53;;;;;;;;;;5073333;28;20025;-70
2023/08/25 03:31:15;;;;;;;6.07;5.15;;;;;;;;;;5074335;28;20032;-73
2023/08/25 03:33:41;;;;;;;9.25;4.95;;;;;;;;;;5073441;28;20519;-71
2023/08/25 03:36:06;;;;;;;8.30;5.50;;;;;;;;;;5074542;28;20028;-71
2023/08/25 03:38:31;;;;;;;7.70;5.10;;;;;;;;;;5073523;28;20039;-71
2023/08/25 03:40:57;;;;;;;6.97;4.87;;;;;;;;;;5072809;28;20259;-72
2023/08/25 03:43:22;;;;;;;6.88;5.47;;;;;;;;;;5074322;28;20350;-71
2023/08/25 03:45:48;;;;;;;7.90;5.23;;;;;;;;;;5073502;28;20024;-72
2023/08/25 03:48:13;;;;;;;7.43;5.18;;;;;;;;;;5073250;28;20270;-72
2023/08/25 03:50:38;;;;;;;7.10;5.40;;;;;;;;;;5082513;28;20037;-71
2023/08/25 03:53:03;;;;;;;8.97;6.30;;;;;;;;;;5074134;28;20776;-71
2023/08/25 03:55:28;;;;;;;8.90;5.97;;;;;;;;;;5073408;28;20278;-71
2023/08/25 03:57:54;;;;;;;7.40;6.22;;;;;;;;;;5072466;28;20042;-71
2023/08/25 04:00:19;;;;;;;10.77;5.70;;;;;;;;;;5072372;28;20463;-71
2023/08/25 04:02:44;;;;;;;9.60;5.65;;;;;;;;;;5077554;28;20760;-71
2023/08/25 04:05:10;;;;;;;6.85;5.22;;;;;;;;;;5092027;28;20024;-71
2023/08/25 04:07:35;;;;;;;8.45;6.10;;;;;;;;;;5077783;28;20090;-72
2023/08/25 04:10:00;;;;;;;6.53;5.43;;;;;;;;;;5063521;28;20067;-69
2023/08/25 04:12:26;;;;;;;6.47;5.85;;;;;;;;;;5078560;28;20289;-69
2023/08/25 04:14:51;;;;;;;8.63;5.68;;;;;;;;;;5081493;28;20021;-69
2023/08/25 04:17:17;;;;;;;5.90;5.23;;;;;;;;;;5076862;28;20028;-69
2023/08/25 04:19:42;;;;;;;5.82;5.20;;;;;;;;;;5076364;28;20302;-72
2023/08/25 04:22:07;;;;;;;7.10;5.83;;;;;;;;;;5076844;28;20080;-72
2023/08/25 04:24:32;;;;;;;9.55;5.60;;;;;;;;;;5076232;28;20266;-72
2023/08/25 04:26:58;;;;;;;6.20;5.47;;;;;;;;;;5076862;28;20581;-72
2023/08/25 04:29:23;;;;;;;9.73;5.80;;;;;;;;;;5079750;28;20262;-70
2023/08/25 04:31:48;;;;;;;11.67;5.10;;;;;;;;;;5082932;28;20032;-72
2023/08/25 04:34:13;;;;;;;6.40;5.05;;;;;;;;;;5086856;28;20282;-73
2023/08/25 04:36:39;;;;;;;9.43;5.83;;;;;;;;;;5082240;28;20028;-70
2023/08/25 04:39:05;;;;;;;6.70;5.75;;;;;;;;;;5080316;28;20270;-76
2023/08/25 04:41:30;;;;;;;5.70;5.13;;;;;;;;;;5042159;28;20020;-71
2023/08/25 04:43:55;;;;;;;9.15;5.93;;;;;;;;;;5080845;28;20040;-70
2023/08/25 04:46:20;;;;;;;7.93;6.03;;;;;;;;;;5082008;28;20031;-70
2023/08/25 04:48:46;;;;;;;8.73;6.32;;;;;;;;;;5075034;28;20267;-70
2023/08/25 04:51:11;;;;;;;8.07;5.90;;;;;;;;;;5079404;28;20030;-70
2023/08/25 04:53:37;;;;;;;7.55;6.72;;;;;;;;;;5061553;28;20013;-70
2023/08/25 04:56:02;;;;;;;7.57;5.97;;;;;;;;;;5036707;28;20897;-71
2023/08/25 04:58:28;;;;;;;7.63;5.88;;;;;;;;;;5037177;28;20274;-70
2023/08/25 05:00:53;;;;;;;9.70;6.93;;;;;;;;;;5042841;28;20083;-70
2023/08/25 05:03:18;;;;;;;7.75;6.38;;;;;;;;;;5041313;28;20055;-72
2023/08/25 05:05:44;;;;;;;8.20;6.27;;;;;;;;;;5031610;28;20032;-70
2023/08/25 05:08:09;;;;;;;9.07;6.70;;;;;;;;;;5030456;28;20357;-70
2023/08/25 05:10:34;;;;;;;10.02;7.07;;;;;;;;;;5038961;28;20078;-71
2023/08/25 05:13:00;;;;;;;7.20;6.45;;;;;;;;;;5036320;28;20024;-71
2023/08/25 05:15:25;;;;;;;10.05;6.80;;;;;;;;;;5034579;28;20032;-70
2023/08/25 05:17:50;;;;;;;9.20;6.97;;;;;;;;;;5037571;28;20087;-71
2023/08/25 05:20:18;;;;;;;9.65;6.50;;;;;;;;;;5036302;28;20044;-71
2023/08/25 05:22:43;;;;;;;9.93;6.68;;;;;;;;;;5042770;28;20695;-70
2023/08/25 05:25:09;;;;;;;7.77;6.73;;;;;;;;;;5045427;28;20031;-70
2023/08/25 05:27:34;;;;;;;7.57;6.88;;;;;;;;;;5088632;28;20614;-71
2023/08/25 05:29:59;;;;;;;8.13;6.95;;;;;;;;;;5081967;28;20020;-70
2023/08/25 05:32:25;;;;;;;8.70;7.78;;;;;;;;;;5087374;28;20496;-70
2023/08/25 05:34:50;;;;;;;8.27;7.53;;;;;;;;;;5090959;28;20039;-70
2023/08/25 05:37:15;;;;;;;13.23;8.23;;;;;;;;;;5088140;28;20028;-70
2023/08/25 05:39:41;;;;;;;10.13;8.73;;;;;;;;;;5090288;28;20036;-70
2023/08/25 05:42:07;;;;;;;9.05;7.85;;;;;;;;;;5086067;28;20328;-70
2023/08/25 05:44:33;;;;;;;8.88;7.93;;;;;;;;;;5089944;28;20023;-71
2023/08/25 05:46:58;;;;;;;11.03;7.73;;;;;;;;;;5089449;28;20360;-70
2023/08/25 05:49:23;;;;;;;10.00;7.63;;;;;;;;;;5093824;28;20320;-70
2023/08/25 05:51:49;;;;;;;8.67;7.57;;;;;;;;;;5089659;28;20290;-70
2023/08/25 05:54:15;;;;;;;11.40;7.65;;;;;;;;;;5075794;28;20284;-70
2023/08/25 05:56:40;;;;;;;9.00;7.80;;;;;;;;;;5087580;28;20055;-71
2023/08/25 05:59:05;;;;;;;12.88;7.18;;;;;;;;;;5090581;28;20436;-70
2023/08/25 06:01:30;;;;;;;7.85;7.05;;;;;;;;;;5087674;28;20031;-70
2023/08/25 06:03:56;;;;;;;13.68;6.93;;;;;;;;;;5070502;28;20611;-70
2023/08/25 06:06:21;;;;;;;10.83;7.40;;;;;;;;;;5045113;28;20035;-70
2023/08/25 06:08:46;;;;;;;9.67;7.03;;;;;;;;;;5032676;28;20274;-70
2023/08/25 06:11:12;;;;;;;7.95;6.90;;;;;;;;;;5032454;28;21142;-70
2023/08/25 06:13:37;;;;;;;6.40;5.78;;;;;;;;;;5035727;28;20077;-70
2023/08/25 06:16:03;;;;;;;7.73;6.93;;;;;;;;;;5042795;28;20308;-71
2023/08/25 06:18:28;;;;;;;12.07;7.93;;;;;;;;;;5040026;28;20369;-71
2023/08/25 06:20:54;;;;;;;10.00;8.55;;;;;;;;;;5062424;28;20032;-71
2023/08/25 06:23:19;;;;;;;13.90;8.57;;;;;;;;;;5083845;28;20028;-70
2023/08/25 06:25:45;;;;;;;17.35;9.95;;;;;;;;;;5074858;28;20424;-70
2023/08/25 06:28:10;;;;;;;15.32;11.07;;;;;;;;;;5077200;28;20012;-72
2023/08/25 06:30:38;;;;;;;16.27;11.88;;;;;;;;;;5083746;28;20029;-71
2023/08/25 06:33:03;;;;;;;12.60;8.32;;;;;;;;;;5075181;28;20029;-69
2023/08/25 06:35:29;;;;;;;37.65;10.85;;;;;;;;;;5074115;28;20031;-70
2023/08/25 06:37:55;;;;;;;9.05;5.60;;;;;;;;;;5078818;28;20093;-69
2023/08/25 06:40:20;;;;;;;8.75;5.82;;;;;;;;;;5093533;28;20024;-69
2023/08/25 06:42:45;;;;;;;10.57;6.13;;;;;;;;;;5079471;28;20017;-68
2023/08/25 06:45:11;;;;;;;10.20;6.40;;;;;;;;;;5079141;28;20462;-68
2023/08/25 06:47:37;;;;;;;9.32;5.82;;;;;;;;;;5082049;28;20365;-68
2023/08/25 06:50:03;;;;;;;8.73;6.32;;;;;;;;;;5087237;28;20502;-68
2023/08/25 06:52:28;;;;;;;22.65;8.80;;;;;;;;;;5071769;28;20060;-69
2023/08/25 06:54:53;;;;;;;9.13;6.95;;;;;;;;;;5051765;28;21019;-69
2023/08/25 06:57:18;;;;;;;13.90;8.27;;;;;;;;;;5033930;28;20117;-68
2023/08/25 06:59:44;;;;;;;11.27;6.78;;;;;;;;;;5040608;28;20028;-69
2023/08/25 07:02:09;;;;;;;15.30;7.30;;;;;;;;;;5037127;28;20880;-68
2023/08/25 07:04:34;;;;;;;8.75;6.80;;;;;;;;;;5041524;28;20024;-69
2023/08/25 07:07:00;;;;;;;11.20;5.80;;;;;;;;;;5039537;28;20024;-69
2023/08/25 07:09:25;;;;;;;9.75;5.68;;;;;;;;;;5044429;28;20021;-69
2023/08/25 07:11:51;;;;;;;7.32;5.55;;;;;;;;;;5073123;28;20587;-68
2023/08/25 07:14:16;;;;;;;9.52;6.75;;;;;;;;;;5083396;28;20490;-68
2023/08/25 07:16:42;;;;;;;7.68;5.53;;;;;;;;;;5092263;28;20023;-68
2023/08/25 07:19:08;;;;;;;7.35;6.03;;;;;;;;;;5086253;28;20029;-67
2023/08/25 07:21:33;;;;;;;7.43;5.63;;;;;;;;;;5080917;28;20046;-68
2023/08/25 07:23:58;;;;;;;7.85;5.47;;;;;;;;;;5081228;28;20108;-69
2023/08/25 07:26:25;;;;;;;12.30;6.82;;;;;;;;;;5077567;28;20024;-70
2023/08/25 07:28:51;;;;;;;11.20;6.65;;;;;;;;;;5078285;28;20024;-70
2023/08/25 07:31:16;;;;;;;7.82;5.93;;;;;;;;;;5084331;28;20625;-70
2023/08/25 07:33:41;;;;;;;5.97;4.77;;;;;;;;;;5075907;28;20032;-69
2023/08/25 07:36:06;;;;;;;7.97;5.10;;;;;;;;;;5083352;28;20267;-71
2023/08/25 07:38:31;;;;;;;9.73;5.40;;;;;;;;;;5075870;28;20267;-70
2023/08/25 07:40:57;;;;;;;7.82;5.35;;;;;;;;;;5081908;28;20756;-70
2023/08/25 07:43:22;;;;;;;6.33;4.57;;;;;;;;;;5084178;28;20454;-70
2023/08/25 07:45:48;;;;;;;8.50;5.88;;;;;;;;;;5082119;28;20624;-69
2023/08/25 07:48:13;;;;;;;8.95;6.13;;;;;;;;;;5086355;28;20083;-69
2023/08/25 07:50:39;;;;;;;19.08;6.63;;;;;;;;;;5085054;28;20051;-68
2023/08/25 07:53:04;;;;;;;9.20;6.63;;;;;;;;;;5087282;28;20078;-69
2023/08/25 07:55:30;;;;;;;9.85;7.00;;;;;;;;;;5082351;28;20497;-68
2023/08/25 07:57:55;;;;;;;6.82;5.75;;;;;;;;;;5073507;28;20099;-68
2023/08/25 08:00:20;;;;;;;8.85;6.22;;;;;;;;;;5079254;28;20024;-68
2023/08/25 08:02:46;;;;;;;10.20;6.95;;;;;;;;;;5082850;28;20020;-68
2023/08/25 08:05:12;;;;;;;8.73;7.15;;;;;;;;;;5071401;28;20473;-68
2023/08/25 08:07:38;;;;;;;11.43;7.35;;;;;;;;;;5042063;28;20811;-69
2023/08/25 08:10:03;;;;;;;8.35;6.93;;;;;;;;;;5040874;28;20024;-69
2023/08/25 08:12:29;;;;;;;11.80;8.10;;;;;;;;;;5031354;28;20024;-69
2023/08/25 08:14:54;;;;;;;9.52;8.55;;;;;;;;;;5033223;28;20884;-69
2023/08/25 08:17:20;;;;;;;11.43;9.38;;;;;;;;;;5033250;28;20029;-69
2023/08/25 08:19:45;;;;;;;10.02;9.02;;;;;;;;;;5034953;28;20036;-69
2023/08/25 08:22:10;;;;;;;16.45;11.30;;;;;;;;;;5041056;28;20024;-69
2023/08/25 08:24:36;;;;;;;15.63;14.05;;;;;;;;;;5054187;28;20101;-69
2023/08/25 08:27:02;;;;;;;30.15;26.55;;;;;;;;;;5087678;28;20059;-69
2023/08/25 08:29:27;;;;;;;27.33;24.55;;;;;;;;;;5076210;28;20024;-68
2023/08/25 08:31:55;;;;;;;25.70;21.95;;;;;;;;;;5084638;28;20062;-70
2023/08/25 08:34:20;;;;;;;20.48;18.15;;;;;;;;;;5080619;28;20111;-69
2023/08/25 08:36:46;;;;;;;16.75;15.05;;;;;;;;;;5087200;28;20143;-69
2023/08/25 08:39:12;;;;;;;15.57;7.07;;;;;;;;;;5069008;28;20039;-69
2023/08/25 08:41:38;;;;;;;8.80;7.75;;;;;;;;;;5036423;28;20020;-69
2023/08/25 08:44:05;;;;;;;11.73;9.10;;;;;;;;;;5041579;28;20023;-69
2023/08/25 08:46:31;;;;;;;14.05;12.32;;;;;;;;;;5035789;28;20025;-69
2023/08/25 08:48:56;;;;;;;20.55;17.10;;;;;;;;;;5037298;28;20020;-72
2023/08/25 08:51:23;;;;;;;20.65;17.30;;;;;;;;;;5035037;28;20029;-69
2023/08/25 08:53:50;;;;;;;24.50;17.55;;;;;;;;;;5039155;28;20938;-69
2023/08/25 08:56:16;;;;;;;26.15;23.52;;;;;;;;;;5045113;28;20131;-68
2023/08/25 08:58:42;;;;;;;19.60;17.58;;;;;;;;;;5073689;28;20040;-69
2023/08/25 09:01:09;;;;;;;13.70;11.70;;;;;;;;;;5091215;28;20066;-69
2023/08/25 09:03:37;;;;;;;11.05;8.85;;;;;;;;;;5082889;28;20031;-70
2023/08/25 09:06:03;;;;;;;13.55;10.95;;;;;;;;;;5083604;28;20020;-70
2023/08/25 09:08:29;;;;;;;14.70;11.65;;;;;;;;;;5088133;28;20047;-70
2023/08/25 09:10:54;;;;;;;21.70;12.88;;;;;;;;;;5080322;28;20067;-70
2023/08/25 09:13:20;;;;;;;15.82;13.88;;;;;;;;;;5085367;28;20044;-69
2023/08/25 09:15:49;;;;;;;14.50;13.07;;;;;;;;;;5090939;28;20046;-69
2023/08/25 09:18:14;;;;;;;21.63;19.60;;;;;;;;;;5081987;28;20821;-69
2023/08/25 09:20:39;;;;;;;20.27;18.13;;;;;;;;;;5074194;28;20031;-69
2023/08/25 09:23:06;;;;;;;25.10;19.67;;;;;;;;;;5039049;28;21165;-70
2023/08/25 09:25:34;;;;;;;20.30;18.10;;;;;;;;;;5043205;28;20896;-69
2023/08/25 09:28:00;;;;;;;24.98;18.90;;;;;;;;;;5044203;28;20031;-69
2023/08/25 09:30:36;;;;;;;21.33;19.05;;;;;;;;;;5042092;28;20074;-69
2023/08/25 09:33:03;;;;;;;20.20;17.98;;;;;;;;;;5044487;28;20868;-69
2023/08/25 09:35:29;;;;;;;21.20;18.17;;;;;;;;;;5068132;28;20025;-68
2023/08/25 09:37:54;;;;;;;26.20;20.75;;;;;;;;;;5091522;28;20150;-68
2023/08/25 09:40:19;;;;;;;25.13;19.80;;;;;;;;;;5077174;28;20378;-69
2023/08/25 09:42:45;;;;;;;21.48;17.95;;;;;;;;;;5082919;28;20403;-69
2023/08/25 09:45:13;;;;;;;21.42;18.38;;;;;;;;;;5077276;28;20038;-68
2023/08/25 09:47:41;;;;;;;20.35;15.65;;;;;;;;;;5083331;28;20024;-68
2023/08/25 09:50:07;;;;;;;12.85;11.55;;;;;;;;;;5088328;28;20467;-68
2023/08/25 09:52:36;;;;;;;13.48;11.80;;;;;;;;;;5087732;28;20094;-69
2023/08/25 09:55:01;;;;;;;10.30;9.20;;;;;;;;;;5060964;28;20127;-70
2023/08/25 09:57:27;;;;;;;9.80;8.35;;;;;;;;;;5077015;28;20091;-69
2023/08/25 09:59:53;;;;;;;7.32;4.68;;;;;;;;;;5084595;28;20052;-69
2023/08/25 10:02:19;;;;;;;4.78;3.88;;;;;;;;;;5082463;28;20566;-69
2023/08/25 10:04:44;;;;;;;9.10;3.72;;;;;;;;;;5081043;28;20107;-69
2023/08/25 10:07:10;;;;;;;4.88;3.03;;;;;;;;;;5082993;28;20028;-69
2023/08/25 10:09:35;;;;;;;6.05;3.45;;;;;;;;;;5077629;28;20017;-69
2023/08/25 10:12:02;;;;;;;4.03;2.20;;;;;;;;;;5059569;28;20043;-70
2023/08/25 10:14:30;;;;;;;4.57;2.88;;;;;;;;;;5086242;28;20047;-69
2023/08/25 10:16:56;;;;;;;3.75;2.03;;;;;;;;;;5085531;28;20379;-69
2023/08/25 10:19:27;;;;;;;3.80;1.92;;;;;;;;;;5086705;28;20025;-69
2023/08/25 10:21:53;;;;;;;3.80;1.88;;;;;;;;;;5086134;28;20028;-69
2023/08/25 10:24:20;;;;;;;5.82;2.30;;;;;;;;;;5087672;28;20042;-69
2023/08/25 10:26:45;;;;;;;4.60;2.00;;;;;;;;;;5088457;28;20043;-71
2023/08/25 10:29:12;;;;;;;3.40;2.10;;;;;;;;;;5087599;28;20352;-70
2023/08/25 10:31:44;;;;;;;4.05;1.80;;;;;;;;;;5084863;28;20066;-72
2023/08/25 10:34:28;;;;;;;5.97;1.77;;;;;;;;;;5089259;28;20039;-71
2023/08/25 10:37:01;;;;;;;3.03;1.83;;;;;;;;;;5080722;28;20557;-71
2023/08/25 10:39:44;;;;;;;11.27;3.13;;;;;;;;;;5079565;28;20275;-72
2023/08/25 10:42:09;;;;;;;4.30;2.83;;;;;;;;;;5083937;28;20518;-72
2023/08/25 10:44:38;;;;;;;5.47;2.88;;;;;;;;;;5090144;28;20150;-71
2023/08/25 10:47:03;;;;;;;3.75;2.60;;;;;;;;;;5082046;28;20051;-70
2023/08/25 10:49:36;;;;;;;4.13;2.78;;;;;;;;;;5079019;28;20016;-71
2023/08/25 10:52:18;;;;;;;4.68;3.28;;;;;;;;;;5081753;28;20032;-70
2023/08/25 10:54:44;;;;;;;4.10;3.50;;;;;;;;;;5083683;28;20040;-70
2023/08/25 10:57:29;;;;;;;4.85;3.53;;;;;;;;;;5086664;28;20042;-69
2023/08/25 11:00:14;;;;;;;5.18;4.07;;;;;;;;;;5077846;28;20040;-69
2023/08/25 11:02:39;;;;;;;6.10;5.32;;;;;;;;;;5086024;28;20036;-69
2023/08/25 11:05:23;;;;;;;5.72;5.13;;;;;;;;;;5080619;28;20489;-69
2023/08/25 11:07:48;;;;;;;6.00;4.07;;;;;;;;;;5089308;28;20020;-69
2023/08/25 11:10:13;;;;;;;5.27;3.63;;;;;;;;;;5083596;28;20051;-69
2023/08/25 11:12:40;;;;;;;5.43;3.15;;;;;;;;;;5080499;28;20302;-69
2023/08/25 11:15:09;;;;;;;5.15;4.43;;;;;;;;;;5086109;28;20053;-69
2023/08/25 11:17:34;;;;;;;6.47;4.55;;;;;;;;;;5079071;28;20031;-69
2023/08/25 11:20:00;;;;;;;5.72;4.72;;;;;;;;;;5052764;28;20024;-68
2023/08/25 11:22:25;;;;;;;5.53;4.78;;;;;;;;;;5043376;28;21433;-69
2023/08/25 11:24:50;;;;;;;7.25;5.28;;;;;;;;;;5041485;28;20834;-68
2023/08/25 11:27:16;;;;;;;6.50;5.18;;;;;;;;;;5032278;28;20021;-71
2023/08/25 11:29:45;;;;;;;6.53;5.10;;;;;;;;;;5031782;28;20035;-69
2023/08/25 11:32:13;;;;;;;8.15;6.20;;;;;;;;;;5041566;28;20094;-69
2023/08/25 11:34:38;;;;;;;7.70;5.43;;;;;;;;;;5032012;28;20031;-70
2023/08/25 11:37:04;;;;;;;5.93;4.15;;;;;;;;;;5040239;28;20794;-70
2023/08/25 11:39:29;;;;;;;7.93;4.03;;;;;;;;;;5040037;28;20074;-71
2023/08/25 11:41:55;;;;;;;7.07;4.45;;;;;;;;;;5059648;28;20111;-71
2023/08/25 11:44:20;;;;;;;6.05;5.22;;;;;;;;;;5081524;28;20107;-70
2023/08/25 11:46:45;;;;;;;8.70;6.05;;;;;;;;;;5080396;28;20425;-69
2023/08/25 11:49:11;;;;;;;9.57;7.32;;;;;;;;;;5039690;28;20025;-70
2023/08/25 11:51:36;;;;;;;9.20;7.07;;;;;;;;;;5027361;28;20082;-69
2023/08/25 11:54:05;;;;;;;11.63;10.52;;;;;;;;;;5034491;28;20024;-69
2023/08/25 11:56:31;;;;;;;11.05;9.55;;;;;;;;;;5036094;28;20025;-69
2023/08/25 11:58:56;;;;;;;10.52;8.93;;;;;;;;;;5033166;28;20024;-69
2023/08/25 12:01:21;;;;;;;9.70;8.67;;;;;;;;;;5081548;28;20067;-69
2023/08/25 12:03:47;;;;;;;11.95;8.00;;;;;;;;;;5069574;28;20278;-69
2023/08/25 12:06:13;;;;;;;8.20;6.68;;;;;;;;;;5083658;28;20494;-69
2023/08/25 12:08:39;;;;;;;7.90;7.10;;;;;;;;;;5079564;28;20020;-69
2023/08/25 12:11:05;;;;;;;7.53;6.05;;;;;;;;;;5075235;28;20109;-69
2023/08/25 12:13:31;;;;;;;7.43;6.25;;;;;;;;;;5086656;28;20475;-69
2023/08/25 12:15:57;;;;;;;9.15;6.20;;;;;;;;;;5089131;28;20479;-69
2023/08/25 12:18:23;;;;;;;5.85;4.53;;;;;;;;;;5078749;28;20099;-68
2023/08/25 12:20:49;;;;;;;7.75;4.10;;;;;;;;;;5081618;28;20024;-68
2023/08/25 12:23:14;;;;;;;5.55;4.50;;;;;;;;;;5086225;28;20029;-69
2023/08/25 12:25:42;;;;;;;4.97;3.90;;;;;;;;;;5090911;28;20090;-68
2023/08/25 12:28:07;;;;;;;5.25;3.55;;;;;;;;;;5079407;28;20041;-69
2023/08/25 12:30:33;;;;;;;5.38;4.28;;;;;;;;;;5084528;28;20180;-69
2023/08/25 12:32:58;;;;;;;5.73;4.27;;;;;;;;;;5088848;28;20039;-69
2023/08/25 12:35:23;;;;;;;5.35;3.72;;;;;;;;;;5085188;28;20285;-69
2023/08/25 12:37:48;;;;;;;5.10;3.87;;;;;;;;;;5079557;28;20023;-69
2023/08/25 12:40:14;;;;;;;4.73;3.70;;;;;;;;;;5088100;28;20355;-69
2023/08/25 12:42:39;;;;;;;4.47;3.75;;;;;;;;;;5086167;28;20286;-68
2023/08/25 12:45:14;;;;;;;8.67;4.63;;;;;;;;;;5074802;28;20012;-69
2023/08/25 12:47:39;;;;;;;5.75;4.07;;;;;;;;;;5083963;28;20761;-68
2023/08/25 12:50:05;;;;;;;4.85;4.15;;;;;;;;;;5088852;28;20027;-70
2023/08/25 12:52:33;;;;;;;7.05;5.47;;;;;;;;;;5087061;28;20043;-69
2023/08/25 12:54:58;;;;;;;5.63;4.60;;;;;;;;;;5086825;28;20028;-69
2023/08/25 12:57:23;;;;;;;4.77;3.10;;;;;;;;;;5084691;28;20081;-69
2023/08/25 12:59:48;;;;;;;4.33;3.17;;;;;;;;;;5087036;28;20805;-70
2023/08/25 13:02:14;;;;;;;4.10;2.90;;;;;;;;;;5083380;28;20680;-70
2023/08/25 13:04:39;;;;;;;4.53;3.05;;;;;;;;;;5077846;28;20275;-69
2023/08/25 13:07:04;;;;;;;4.83;3.00;;;;;;;;;;5080475;28;20463;-70
2023/08/25 13:09:29;;;;;;;3.40;2.28;;;;;;;;;;5086035;28;20297;-70
2023/08/25 13:11:55;;;;;;;4.83;2.40;;;;;;;;;;5078501;28;20024;-69
2023/08/25 13:14:20;;;;;;;4.93;2.77;;;;;;;;;;5076775;28;20661;-69
2023/08/25 13:16:45;;;;;;;3.20;1.90;;;;;;;;;;5081934;28;20263;-70
2023/08/25 13:19:13;;;;;;;3.58;2.00;;;;;;;;;;5078970;28;20060;-69
2023/08/25 13:21:38;;;;;;;4.68;2.00;;;;;;;;;;5080054;28;20027;-70
2023/08/25 13:24:04;;;;;;;3.60;1.90;;;;;;;;;;5078384;28;20037;-69
2023/08/25 13:26:29;;;;;;;4.60;1.90;;;;;;;;;;5081392;28;20312;-70
2023/08/25 13:28:54;;;;;;;3.70;2.00;;;;;;;;;;5072332;28;20029;-69
2023/08/25 13:31:20;;;;;;;2.85;1.73;;;;;;;;;;5078536;28;20282;-70
2023/08/25 13:33:45;;;;;;;2.60;1.80;;;;;;;;;;5070811;28;20483;-70
2023/08/25 13:36:10;;;;;;;4.37;1.73;;;;;;;;;;5080177;28;20298;-70
2023/08/25 13:38:35;;;;;;;3.20;2.13;;;;;;;;;;5076757;28;20282;-70
2023/08/25 13:41:01;;;;;;;2.90;1.80;;;;;;;;;;5080878;28;20269;-70
2023/08/25 13:43:26;;;;;;;3.47;2.10;;;;;;;;;;5086042;28;20278;-71
2023/08/25 13:45:52;;;;;;;7.63;2.30;;;;;;;;;;5085098;28;20062;-70
2023/08/25 13:48:17;;;;;;;4.55;2.05;;;;;;;;;;5079957;28;20263;-70
2023/08/25 13:50:42;;;;;;;2.47;1.50;;;;;;;;;;5084120;28;20028;-73
2023/08/25 13:53:08;;;;;;;3.33;2.07;;;;;;;;;;5067830;28;20734;-72
2023/08/25 13:55:33;;;;;;;3.78;1.70;;;;;;;;;;5078805;28;20311;-70
2023/08/25 13:57:58;;;;;;;2.97;1.87;;;;;;;;;;5075775;28;20039;-69
2023/08/25 14:00:24;;;;;;;5.50;1.73;;;;;;;;;;5080197;28;20737;-71
2023/08/25 14:02:49;;;;;;;2.20;1.10;;;;;;;;;;5079579;28;20747;-68
2023/08/25 14:05:17;;;;;;;3.72;1.73;;;;;;;;;;5081483;28;20109;-70
2023/08/25 14:07:44;;;;;;;3.15;1.58;;;;;;;;;;5044622;28;20024;-72
2023/08/25 14:10:09;;;;;;;3.00;1.45;;;;;;;;;;5042209;28;20824;-67
2023/08/25 14:12:37;;;;;;;2.78;1.40;;;;;;;;;;5038659;28;20026;-75
2023/08/25 14:15:02;;;;;;;2.95;1.60;;;;;;;;;;5036166;28;20187;-70
2023/08/25 14:17:28;;;;;;;2.60;1.50;;;;;;;;;;5042102;28;20020;-69
2023/08/25 14:19:53;;;;;;;2.57;1.53;;;;;;;;;;5035328;28;20024;-70
2023/08/25 14:22:19;;;;;;;3.87;1.70;;;;;;;;;;5043058;28;20270;-69
2023/08/25 14:24:44;;;;;;;7.23;1.40;;;;;;;;;;5082764;28;20353;-69
2023/08/25 14:27:09;;;;;;;2.50;1.50;;;;;;;;;;5056078;28;20933;-70
2023/08/25 14:29:34;;;;;;;3.10;1.77;;;;;;;;;;5041796;28;20317;-70